<?xml version="1.0" encoding="utf-8"?>
<gpx xmlns:xsi="http://www.w3.org/2001/XMLSchema-instance" xmlns:xsd="http://www.w3.org/2001/XMLSchema" version="1.1" creator="Shapelink.com" xmlns="http://www.topografix.com/GPX/1/1" xmlns:gpxtpx="http://www.garmin.com/xmlschemas/TrackPointExtension/v1">
  <metadata>
    <name>Løping 6.23 km, 2014-07-01</name>
    <desc></desc>
    <author><name>Dennis Rehn</name></author> 
    <time>2014-07-01T16:32:14Z</time>
  </metadata>
  <trk>
    <name>Løping 6.23 km, 2014-07-01</name>
    <trkseg>
      <trkpt lat="59.983566654624" lon="23.469562153091">
        <ele>53.6</ele>
        <time>2014-07-01T16:32:14Z</time>
      </trkpt>
      <trkpt lat="59.983728592932" lon="23.46961755745">
        <ele>52</ele>
        <time>2014-07-01T16:32:20Z</time>
      </trkpt>
      <trkpt lat="59.983751559338" lon="23.469627531911">
        <ele>51.8</ele>
        <time>2014-07-01T16:32:21Z</time>
      </trkpt>
      <trkpt lat="59.983881394969" lon="23.46978854821">
        <ele>50.2</ele>
        <time>2014-07-01T16:32:27Z</time>
      </trkpt>
      <trkpt lat="59.983977283905" lon="23.469875049418">
        <ele>49</ele>
        <time>2014-07-01T16:32:31Z</time>
      </trkpt>
      <trkpt lat="59.984112567771" lon="23.470121477278">
        <ele>47.2</ele>
        <time>2014-07-01T16:32:38Z</time>
      </trkpt>
      <trkpt lat="59.984161350429" lon="23.470299676472">
        <ele>46.6</ele>
        <time>2014-07-01T16:32:42Z</time>
      </trkpt>
      <trkpt lat="59.984267884378" lon="23.470489945602">
        <ele>46.2</ele>
        <time>2014-07-01T16:32:48Z</time>
      </trkpt>
      <trkpt lat="59.984282887979" lon="23.470507882868">
        <ele>46.2</ele>
        <time>2014-07-01T16:32:49Z</time>
      </trkpt>
      <trkpt lat="59.984312895181" lon="23.470520958632">
        <ele>46</ele>
        <time>2014-07-01T16:32:50Z</time>
      </trkpt>
      <trkpt lat="59.984429235953" lon="23.470590360764">
        <ele>45</ele>
        <time>2014-07-01T16:32:55Z</time>
      </trkpt>
      <trkpt lat="59.98454515763" lon="23.470671916651">
        <ele>44.4</ele>
        <time>2014-07-01T16:33:00Z</time>
      </trkpt>
      <trkpt lat="59.984599556161" lon="23.470697229989">
        <ele>44.2</ele>
        <time>2014-07-01T16:33:02Z</time>
      </trkpt>
      <trkpt lat="59.984791166395" lon="23.470790939631">
        <ele>44</ele>
        <time>2014-07-01T16:33:09Z</time>
      </trkpt>
      <trkpt lat="59.984912368669" lon="23.470965115513">
        <ele>43.8</ele>
        <time>2014-07-01T16:33:15Z</time>
      </trkpt>
      <trkpt lat="59.985042958671" lon="23.471222020748">
        <ele>43.6</ele>
        <time>2014-07-01T16:33:21Z</time>
      </trkpt>
      <trkpt lat="59.985148822068" lon="23.471445817478">
        <ele>43.6</ele>
        <time>2014-07-01T16:33:26Z</time>
      </trkpt>
      <trkpt lat="59.985280334079" lon="23.471740189806">
        <ele>43</ele>
        <time>2014-07-01T16:33:32Z</time>
      </trkpt>
      <trkpt lat="59.985393070634" lon="23.472033304849">
        <ele>42.4</ele>
        <time>2014-07-01T16:33:38Z</time>
      </trkpt>
      <trkpt lat="59.985543861015" lon="23.472449298546">
        <ele>41.8</ele>
        <time>2014-07-01T16:33:47Z</time>
      </trkpt>
      <trkpt lat="59.985638660304" lon="23.472808630599">
        <ele>41.6</ele>
        <time>2014-07-01T16:33:54Z</time>
      </trkpt>
      <trkpt lat="59.985697836518" lon="23.473001162842">
        <ele>41.6</ele>
        <time>2014-07-01T16:33:58Z</time>
      </trkpt>
      <trkpt lat="59.985771848695" lon="23.473268545452">
        <ele>41.6</ele>
        <time>2014-07-01T16:34:03Z</time>
      </trkpt>
      <trkpt lat="59.985849968003" lon="23.4735025681">
        <ele>41.6</ele>
        <time>2014-07-01T16:34:08Z</time>
      </trkpt>
      <trkpt lat="59.985911910244" lon="23.473729130857">
        <ele>41.6</ele>
        <time>2014-07-01T16:34:12Z</time>
      </trkpt>
      <trkpt lat="59.985968739526" lon="23.473946138248">
        <ele>41.6</ele>
        <time>2014-07-01T16:34:16Z</time>
      </trkpt>
      <trkpt lat="59.9860312685" lon="23.474200109818">
        <ele>41.6</ele>
        <time>2014-07-01T16:34:21Z</time>
      </trkpt>
      <trkpt lat="59.986141322847" lon="23.474552401075">
        <ele>41.6</ele>
        <time>2014-07-01T16:34:28Z</time>
      </trkpt>
      <trkpt lat="59.98621902306" lon="23.474798828935">
        <ele>41.6</ele>
        <time>2014-07-01T16:34:33Z</time>
      </trkpt>
      <trkpt lat="59.986305859544" lon="23.475092111616">
        <ele>41.6</ele>
        <time>2014-07-01T16:34:39Z</time>
      </trkpt>
      <trkpt lat="59.986457655753" lon="23.475664092472">
        <ele>40.2</ele>
        <time>2014-07-01T16:34:51Z</time>
      </trkpt>
      <trkpt lat="59.986525046229" lon="23.475903814812">
        <ele>40</ele>
        <time>2014-07-01T16:34:56Z</time>
      </trkpt>
      <trkpt lat="59.986594951275" lon="23.476168515214">
        <ele>39.8</ele>
        <time>2014-07-01T16:35:01Z</time>
      </trkpt>
      <trkpt lat="59.986676842438" lon="23.476410500667">
        <ele>39.6</ele>
        <time>2014-07-01T16:35:06Z</time>
      </trkpt>
      <trkpt lat="59.986753536823" lon="23.476628262429">
        <ele>39.6</ele>
        <time>2014-07-01T16:35:11Z</time>
      </trkpt>
      <trkpt lat="59.986818831824" lon="23.476879803248">
        <ele>39.6</ele>
        <time>2014-07-01T16:35:16Z</time>
      </trkpt>
      <trkpt lat="59.98690130972" lon="23.477167805332">
        <ele>39.6</ele>
        <time>2014-07-01T16:35:22Z</time>
      </trkpt>
      <trkpt lat="59.986962581409" lon="23.477430242621">
        <ele>39.6</ele>
        <time>2014-07-01T16:35:28Z</time>
      </trkpt>
      <trkpt lat="59.987014297732" lon="23.477674575006">
        <ele>39.6</ele>
        <time>2014-07-01T16:35:33Z</time>
      </trkpt>
      <trkpt lat="59.987058135069" lon="23.477981184908">
        <ele>39.6</ele>
        <time>2014-07-01T16:35:39Z</time>
      </trkpt>
      <trkpt lat="59.987125525545" lon="23.478320903315">
        <ele>39.6</ele>
        <time>2014-07-01T16:35:46Z</time>
      </trkpt>
      <trkpt lat="59.987203980129" lon="23.478591806323">
        <ele>39.6</ele>
        <time>2014-07-01T16:35:52Z</time>
      </trkpt>
      <trkpt lat="59.987268185483" lon="23.478844269151">
        <ele>39.6</ele>
        <time>2014-07-01T16:35:57Z</time>
      </trkpt>
      <trkpt lat="59.987336246511" lon="23.479159260953">
        <ele>39.6</ele>
        <time>2014-07-01T16:36:03Z</time>
      </trkpt>
      <trkpt lat="59.987387795196" lon="23.479424296631">
        <ele>39.6</ele>
        <time>2014-07-01T16:36:08Z</time>
      </trkpt>
      <trkpt lat="59.987452168188" lon="23.479697965666">
        <ele>39.6</ele>
        <time>2014-07-01T16:36:13Z</time>
      </trkpt>
      <trkpt lat="59.987516205904" lon="23.479966773199">
        <ele>39.6</ele>
        <time>2014-07-01T16:36:18Z</time>
      </trkpt>
      <trkpt lat="59.987580662715" lon="23.480208758652">
        <ele>39.6</ele>
        <time>2014-07-01T16:36:23Z</time>
      </trkpt>
      <trkpt lat="59.987669259398" lon="23.480487456827">
        <ele>39.6</ele>
        <time>2014-07-01T16:36:29Z</time>
      </trkpt>
      <trkpt lat="59.987763974868" lon="23.480796581299">
        <ele>39.6</ele>
        <time>2014-07-01T16:36:35Z</time>
      </trkpt>
      <trkpt lat="59.987839160511" lon="23.481107298332">
        <ele>39.6</ele>
        <time>2014-07-01T16:36:41Z</time>
      </trkpt>
      <trkpt lat="59.987871514645" lon="23.481427067817">
        <ele>39.6</ele>
        <time>2014-07-01T16:36:47Z</time>
      </trkpt>
      <trkpt lat="59.987821893797" lon="23.481665449053">
        <ele>39.6</ele>
        <time>2014-07-01T16:36:52Z</time>
      </trkpt>
      <trkpt lat="59.987691639071" lon="23.481772737373">
        <ele>39.6</ele>
        <time>2014-07-01T16:36:57Z</time>
      </trkpt>
      <trkpt lat="59.98766322443" lon="23.481765948034">
        <ele>39.6</ele>
        <time>2014-07-01T16:36:58Z</time>
      </trkpt>
      <trkpt lat="59.987459292803" lon="23.481652708565">
        <ele>39.6</ele>
        <time>2014-07-01T16:37:05Z</time>
      </trkpt>
      <trkpt lat="59.987330630638" lon="23.48152991373">
        <ele>39.6</ele>
        <time>2014-07-01T16:37:10Z</time>
      </trkpt>
      <trkpt lat="59.987205824147" lon="23.481373926571">
        <ele>39.6</ele>
        <time>2014-07-01T16:37:15Z</time>
      </trkpt>
      <trkpt lat="59.987090070108" lon="23.481210395702">
        <ele>39.6</ele>
        <time>2014-07-01T16:37:20Z</time>
      </trkpt>
      <trkpt lat="59.987013040447" lon="23.481048708851">
        <ele>39.6</ele>
        <time>2014-07-01T16:37:24Z</time>
      </trkpt>
      <trkpt lat="59.986965263617" lon="23.480924824369">
        <ele>39.6</ele>
        <time>2014-07-01T16:37:27Z</time>
      </trkpt>
      <trkpt lat="59.986857053288" lon="23.480673032093">
        <ele>39.6</ele>
        <time>2014-07-01T16:37:33Z</time>
      </trkpt>
      <trkpt lat="59.986733252625" lon="23.480365332544">
        <ele>39</ele>
        <time>2014-07-01T16:37:40Z</time>
      </trkpt>
      <trkpt lat="59.986603416994" lon="23.48012259272">
        <ele>38.2</ele>
        <time>2014-07-01T16:37:46Z</time>
      </trkpt>
      <trkpt lat="59.986471653526" lon="23.479890581728">
        <ele>37.8</ele>
        <time>2014-07-01T16:37:52Z</time>
      </trkpt>
      <trkpt lat="59.986337291669" lon="23.47963141338">
        <ele>37.6</ele>
        <time>2014-07-01T16:37:58Z</time>
      </trkpt>
      <trkpt lat="59.986232601738" lon="23.479400994949">
        <ele>37.6</ele>
        <time>2014-07-01T16:38:03Z</time>
      </trkpt>
      <trkpt lat="59.986111818559" lon="23.479158171306">
        <ele>37.6</ele>
        <time>2014-07-01T16:38:09Z</time>
      </trkpt>
      <trkpt lat="59.986036381459" lon="23.478994808075">
        <ele>36.8</ele>
        <time>2014-07-01T16:38:13Z</time>
      </trkpt>
      <trkpt lat="59.985964967671" lon="23.478762377988">
        <ele>36.2</ele>
        <time>2014-07-01T16:38:18Z</time>
      </trkpt>
      <trkpt lat="59.985896739005" lon="23.478511423902">
        <ele>35.8</ele>
        <time>2014-07-01T16:38:23Z</time>
      </trkpt>
      <trkpt lat="59.985825409036" lon="23.47825007626">
        <ele>35.6</ele>
        <time>2014-07-01T16:38:28Z</time>
      </trkpt>
      <trkpt lat="59.985753240877" lon="23.478058633664">
        <ele>35.6</ele>
        <time>2014-07-01T16:38:32Z</time>
      </trkpt>
      <trkpt lat="59.98564067196" lon="23.477728386804">
        <ele>35.4</ele>
        <time>2014-07-01T16:38:38Z</time>
      </trkpt>
      <trkpt lat="59.985545034481" lon="23.477457232339">
        <ele>35.4</ele>
        <time>2014-07-01T16:38:44Z</time>
      </trkpt>
      <trkpt lat="59.985454342323" lon="23.477226143356">
        <ele>35.4</ele>
        <time>2014-07-01T16:38:49Z</time>
      </trkpt>
      <trkpt lat="59.985370523323" lon="23.476992875079">
        <ele>35.4</ele>
        <time>2014-07-01T16:38:54Z</time>
      </trkpt>
      <trkpt lat="59.985297516974" lon="23.476701687873">
        <ele>34.4</ele>
        <time>2014-07-01T16:39:00Z</time>
      </trkpt>
      <trkpt lat="59.985225264996" lon="23.4764278512">
        <ele>34</ele>
        <time>2014-07-01T16:39:05Z</time>
      </trkpt>
      <trkpt lat="59.9851595509" lon="23.47623255293">
        <ele>33.8</ele>
        <time>2014-07-01T16:39:09Z</time>
      </trkpt>
      <trkpt lat="59.985037091341" lon="23.475848075177">
        <ele>33</ele>
        <time>2014-07-01T16:39:17Z</time>
      </trkpt>
      <trkpt lat="59.984941370043" lon="23.475620841868">
        <ele>32.2</ele>
        <time>2014-07-01T16:39:22Z</time>
      </trkpt>
      <trkpt lat="59.984864759477" lon="23.475367037936">
        <ele>31.8</ele>
        <time>2014-07-01T16:39:27Z</time>
      </trkpt>
      <trkpt lat="59.984775324604" lon="23.475072078875">
        <ele>31.6</ele>
        <time>2014-07-01T16:39:33Z</time>
      </trkpt>
      <trkpt lat="59.984686727921" lon="23.474767145353">
        <ele>31.4</ele>
        <time>2014-07-01T16:39:39Z</time>
      </trkpt>
      <trkpt lat="59.984633335218" lon="23.474619372456">
        <ele>31.4</ele>
        <time>2014-07-01T16:39:42Z</time>
      </trkpt>
      <trkpt lat="59.98459544903" lon="23.474525914271">
        <ele>30.8</ele>
        <time>2014-07-01T16:39:44Z</time>
      </trkpt>
      <trkpt lat="59.984485059407" lon="23.474293065089">
        <ele>30.2</ele>
        <time>2014-07-01T16:39:50Z</time>
      </trkpt>
      <trkpt lat="59.984466786865" lon="23.474244114793">
        <ele>30</ele>
        <time>2014-07-01T16:39:51Z</time>
      </trkpt>
      <trkpt lat="59.984361510201" lon="23.473961980039">
        <ele>29.6</ele>
        <time>2014-07-01T16:39:57Z</time>
      </trkpt>
      <trkpt lat="59.984280038133" lon="23.473761233534">
        <ele>29.4</ele>
        <time>2014-07-01T16:40:01Z</time>
      </trkpt>
      <trkpt lat="59.984234356778" lon="23.473642713468">
        <ele>29.4</ele>
        <time>2014-07-01T16:40:04Z</time>
      </trkpt>
      <trkpt lat="59.984130672675" lon="23.473428304466">
        <ele>29.4</ele>
        <time>2014-07-01T16:40:09Z</time>
      </trkpt>
      <trkpt lat="59.9840447582" lon="23.473265947063">
        <ele>29.2</ele>
        <time>2014-07-01T16:40:13Z</time>
      </trkpt>
      <trkpt lat="59.983960520105" lon="23.473087999326">
        <ele>29.2</ele>
        <time>2014-07-01T16:40:17Z</time>
      </trkpt>
      <trkpt lat="59.983902852633" lon="23.472895634721">
        <ele>29.2</ele>
        <time>2014-07-01T16:40:21Z</time>
      </trkpt>
      <trkpt lat="59.983857925649" lon="23.472698240976">
        <ele>29.2</ele>
        <time>2014-07-01T16:40:25Z</time>
      </trkpt>
      <trkpt lat="59.983848202645" lon="23.472654236001">
        <ele>29.2</ele>
        <time>2014-07-01T16:40:26Z</time>
      </trkpt>
      <trkpt lat="59.983840826573" lon="23.472603525506">
        <ele>29.2</ele>
        <time>2014-07-01T16:40:27Z</time>
      </trkpt>
      <trkpt lat="59.983806376964" lon="23.472457261351">
        <ele>29.2</ele>
        <time>2014-07-01T16:40:30Z</time>
      </trkpt>
      <trkpt lat="59.983802269833" lon="23.472412585824">
        <ele>29.2</ele>
        <time>2014-07-01T16:40:31Z</time>
      </trkpt>
      <trkpt lat="59.98377067007" lon="23.472051745029">
        <ele>29.2</ele>
        <time>2014-07-01T16:40:38Z</time>
      </trkpt>
      <trkpt lat="59.983756839935" lon="23.471793331052">
        <ele>29.2</ele>
        <time>2014-07-01T16:40:44Z</time>
      </trkpt>
      <trkpt lat="59.983773519916" lon="23.471591662538">
        <ele>29.2</ele>
        <time>2014-07-01T16:40:50Z</time>
      </trkpt>
      <trkpt lat="59.983832947587" lon="23.471471969006">
        <ele>29.2</ele>
        <time>2014-07-01T16:40:54Z</time>
      </trkpt>
      <trkpt lat="59.983850549577" lon="23.471454115559">
        <ele>29.2</ele>
        <time>2014-07-01T16:40:55Z</time>
      </trkpt>
      <trkpt lat="59.983964627236" lon="23.471349844723">
        <ele>29.2</ele>
        <time>2014-07-01T16:41:01Z</time>
      </trkpt>
      <trkpt lat="59.98406906571" lon="23.471228893906">
        <ele>29.8</ele>
        <time>2014-07-01T16:41:06Z</time>
      </trkpt>
      <trkpt lat="59.984194039839" lon="23.471092604212">
        <ele>30.4</ele>
        <time>2014-07-01T16:41:11Z</time>
      </trkpt>
      <trkpt lat="59.98430794986" lon="23.470988668652">
        <ele>30.8</ele>
        <time>2014-07-01T16:41:16Z</time>
      </trkpt>
      <trkpt lat="59.984403084425" lon="23.470912896276">
        <ele>31.2</ele>
        <time>2014-07-01T16:41:20Z</time>
      </trkpt>
      <trkpt lat="59.984539206481" lon="23.470881715608">
        <ele>32</ele>
        <time>2014-07-01T16:41:25Z</time>
      </trkpt>
      <trkpt lat="59.984568459312" lon="23.470885236006">
        <ele>32.2</ele>
        <time>2014-07-01T16:41:26Z</time>
      </trkpt>
      <trkpt lat="59.984744479212" lon="23.470909375878">
        <ele>32.8</ele>
        <time>2014-07-01T16:41:32Z</time>
      </trkpt>
      <trkpt lat="59.984854198283" lon="23.470981208761">
        <ele>33</ele>
        <time>2014-07-01T16:41:37Z</time>
      </trkpt>
      <trkpt lat="59.984884456942" lon="23.470993613973">
        <ele>33.4</ele>
        <time>2014-07-01T16:41:39Z</time>
      </trkpt>
      <trkpt lat="59.984943884613" lon="23.470994535982">
        <ele>34.2</ele>
        <time>2014-07-01T16:41:44Z</time>
      </trkpt>
      <trkpt lat="59.984975568195" lon="23.471022699166">
        <ele>34.8</ele>
        <time>2014-07-01T16:41:51Z</time>
      </trkpt>
      <trkpt lat="59.984972299254" lon="23.471055220938">
        <ele>36.8</ele>
        <time>2014-07-01T16:42:12Z</time>
      </trkpt>
      <trkpt lat="59.984932736686" lon="23.471022615347">
        <ele>37.6</ele>
        <time>2014-07-01T16:42:18Z</time>
      </trkpt>
      <trkpt lat="59.984915134696" lon="23.471003504615">
        <ele>38.4</ele>
        <time>2014-07-01T16:42:23Z</time>
      </trkpt>
      <trkpt lat="59.98490557933" lon="23.471013311438">
        <ele>38.8</ele>
        <time>2014-07-01T16:42:29Z</time>
      </trkpt>
      <trkpt lat="59.984895772507" lon="23.47103074579">
        <ele>39.2</ele>
        <time>2014-07-01T16:42:35Z</time>
      </trkpt>
      <trkpt lat="59.984868866608" lon="23.471063519019">
        <ele>39.4</ele>
        <time>2014-07-01T16:42:49Z</time>
      </trkpt>
      <trkpt lat="59.984899544362" lon="23.47104918597">
        <ele>39.4</ele>
        <time>2014-07-01T16:42:56Z</time>
      </trkpt>
      <trkpt lat="59.98490893209" lon="23.471061172087">
        <ele>39.4</ele>
        <time>2014-07-01T16:43:01Z</time>
      </trkpt>
      <trkpt lat="59.984959894042" lon="23.471139039938">
        <ele>39.4</ele>
        <time>2014-07-01T16:43:28Z</time>
      </trkpt>
      <trkpt lat="59.985074223158" lon="23.471347665429">
        <ele>39.4</ele>
        <time>2014-07-01T16:43:32Z</time>
      </trkpt>
      <trkpt lat="59.985212692146" lon="23.471629548726">
        <ele>39.4</ele>
        <time>2014-07-01T16:43:36Z</time>
      </trkpt>
      <trkpt lat="59.98534479089" lon="23.471945713994">
        <ele>39.4</ele>
        <time>2014-07-01T16:43:40Z</time>
      </trkpt>
      <trkpt lat="59.985461802214" lon="23.47223522482">
        <ele>39.4</ele>
        <time>2014-07-01T16:43:44Z</time>
      </trkpt>
      <trkpt lat="59.985518966772" lon="23.47237436436">
        <ele>39.4</ele>
        <time>2014-07-01T16:43:46Z</time>
      </trkpt>
      <trkpt lat="59.985601528487" lon="23.47265767258">
        <ele>39.4</ele>
        <time>2014-07-01T16:43:50Z</time>
      </trkpt>
      <trkpt lat="59.985680653623" lon="23.472965204491">
        <ele>39.4</ele>
        <time>2014-07-01T16:43:54Z</time>
      </trkpt>
      <trkpt lat="59.98572197639" lon="23.473130747016">
        <ele>39.4</ele>
        <time>2014-07-01T16:43:56Z</time>
      </trkpt>
      <trkpt lat="59.985813422919" lon="23.473412546494">
        <ele>39.4</ele>
        <time>2014-07-01T16:44:00Z</time>
      </trkpt>
      <trkpt lat="59.985848962175" lon="23.473563588332">
        <ele>39.4</ele>
        <time>2014-07-01T16:44:02Z</time>
      </trkpt>
      <trkpt lat="59.985904282715" lon="23.473785205768">
        <ele>39.4</ele>
        <time>2014-07-01T16:44:05Z</time>
      </trkpt>
      <trkpt lat="59.986008972646" lon="23.474134898636">
        <ele>39.4</ele>
        <time>2014-07-01T16:44:10Z</time>
      </trkpt>
      <trkpt lat="59.986130007282" lon="23.474566315029">
        <ele>39</ele>
        <time>2014-07-01T16:44:16Z</time>
      </trkpt>
      <trkpt lat="59.98617627537" lon="23.47470285618">
        <ele>38.8</ele>
        <time>2014-07-01T16:44:18Z</time>
      </trkpt>
      <trkpt lat="59.98629362197" lon="23.475090351417">
        <ele>38.2</ele>
        <time>2014-07-01T16:44:24Z</time>
      </trkpt>
      <trkpt lat="59.986377357151" lon="23.475428309625">
        <ele>37.8</ele>
        <time>2014-07-01T16:44:29Z</time>
      </trkpt>
      <trkpt lat="59.986454135355" lon="23.475681275367">
        <ele>37.6</ele>
        <time>2014-07-01T16:44:33Z</time>
      </trkpt>
      <trkpt lat="59.986635268214" lon="23.476195421113">
        <ele>37.6</ele>
        <time>2014-07-01T16:44:41Z</time>
      </trkpt>
      <trkpt lat="59.986699892663" lon="23.476357024145">
        <ele>37.6</ele>
        <time>2014-07-01T16:44:44Z</time>
      </trkpt>
      <trkpt lat="59.986820256747" lon="23.476768072521">
        <ele>37.4</ele>
        <time>2014-07-01T16:44:50Z</time>
      </trkpt>
      <trkpt lat="59.986907679964" lon="23.477089266929">
        <ele>37.4</ele>
        <time>2014-07-01T16:44:55Z</time>
      </trkpt>
      <trkpt lat="59.986926706877" lon="23.477160093984">
        <ele>37.4</ele>
        <time>2014-07-01T16:44:56Z</time>
      </trkpt>
      <trkpt lat="59.986983284702" lon="23.477398726677">
        <ele>37.4</ele>
        <time>2014-07-01T16:45:01Z</time>
      </trkpt>
      <trkpt lat="59.986997366294" lon="23.477441642005">
        <ele>37.4</ele>
        <time>2014-07-01T16:45:03Z</time>
      </trkpt>
      <trkpt lat="59.987011615524" lon="23.477530322507">
        <ele>37.8</ele>
        <time>2014-07-01T16:45:07Z</time>
      </trkpt>
      <trkpt lat="59.987044137296" lon="23.47772201656">
        <ele>38.8</ele>
        <time>2014-07-01T16:45:15Z</time>
      </trkpt>
      <trkpt lat="59.98704799297" lon="23.477750347382">
        <ele>38.8</ele>
        <time>2014-07-01T16:45:16Z</time>
      </trkpt>
      <trkpt lat="59.987074312136" lon="23.477868280715">
        <ele>39.2</ele>
        <time>2014-07-01T16:45:20Z</time>
      </trkpt>
      <trkpt lat="59.98709409342" lon="23.477982190736">
        <ele>40</ele>
        <time>2014-07-01T16:45:24Z</time>
      </trkpt>
      <trkpt lat="59.987130806142" lon="23.478101046078">
        <ele>40.6</ele>
        <time>2014-07-01T16:45:29Z</time>
      </trkpt>
      <trkpt lat="59.987137930757" lon="23.478122922837">
        <ele>40.6</ele>
        <time>2014-07-01T16:45:30Z</time>
      </trkpt>
      <trkpt lat="59.987146228838" lon="23.478143207035">
        <ele>40.8</ele>
        <time>2014-07-01T16:45:31Z</time>
      </trkpt>
      <trkpt lat="59.987183612112" lon="23.47834143897">
        <ele>41.2</ele>
        <time>2014-07-01T16:45:39Z</time>
      </trkpt>
      <trkpt lat="59.987226108345" lon="23.4785484719">
        <ele>41.4</ele>
        <time>2014-07-01T16:45:46Z</time>
      </trkpt>
      <trkpt lat="59.987265251818" lon="23.47871778628">
        <ele>41.4</ele>
        <time>2014-07-01T16:45:52Z</time>
      </trkpt>
      <trkpt lat="59.987297605952" lon="23.478826583342">
        <ele>41.4</ele>
        <time>2014-07-01T16:45:57Z</time>
      </trkpt>
      <trkpt lat="59.987316716684" lon="23.478909647971">
        <ele>41.6</ele>
        <time>2014-07-01T16:46:00Z</time>
      </trkpt>
      <trkpt lat="59.987367846274" lon="23.479261017219">
        <ele>41.6</ele>
        <time>2014-07-01T16:46:11Z</time>
      </trkpt>
      <trkpt lat="59.987368013912" lon="23.479468636882">
        <ele>41.6</ele>
        <time>2014-07-01T16:46:18Z</time>
      </trkpt>
      <trkpt lat="59.987351585388" lon="23.479634430864">
        <ele>41.6</ele>
        <time>2014-07-01T16:46:24Z</time>
      </trkpt>
      <trkpt lat="59.987332893751" lon="23.479674831622">
        <ele>41.6</ele>
        <time>2014-07-01T16:46:31Z</time>
      </trkpt>
      <trkpt lat="59.987327864611" lon="23.479676088907">
        <ele>41.6</ele>
        <time>2014-07-01T16:46:41Z</time>
      </trkpt>
      <trkpt lat="59.987298779418" lon="23.479802823235">
        <ele>41.6</ele>
        <time>2014-07-01T16:47:21Z</time>
      </trkpt>
      <trkpt lat="59.987311268449" lon="23.479774492413">
        <ele>41.6</ele>
        <time>2014-07-01T16:47:25Z</time>
      </trkpt>
      <trkpt lat="59.987280339238" lon="23.479764853228">
        <ele>41.6</ele>
        <time>2014-07-01T16:47:31Z</time>
      </trkpt>
      <trkpt lat="59.987291151889" lon="23.479777677535">
        <ele>41.6</ele>
        <time>2014-07-01T16:47:36Z</time>
      </trkpt>
      <trkpt lat="59.987291235708" lon="23.479756722785">
        <ele>41.6</ele>
        <time>2014-07-01T16:47:43Z</time>
      </trkpt>
      <trkpt lat="59.987260809411" lon="23.47977725844">
        <ele>41.6</ele>
        <time>2014-07-01T16:47:47Z</time>
      </trkpt>
      <trkpt lat="59.987239184109" lon="23.479844900373">
        <ele>41.6</ele>
        <time>2014-07-01T16:47:50Z</time>
      </trkpt>
      <trkpt lat="59.987224431965" lon="23.479835680283">
        <ele>41.6</ele>
        <time>2014-07-01T16:47:59Z</time>
      </trkpt>
      <trkpt lat="59.987228036182" lon="23.479822939795">
        <ele>41.6</ele>
        <time>2014-07-01T16:48:05Z</time>
      </trkpt>
      <trkpt lat="59.987230466933" lon="23.479819754673">
        <ele>41.6</ele>
        <time>2014-07-01T16:48:09Z</time>
      </trkpt>
      <trkpt lat="59.98722904201" lon="23.479789747471">
        <ele>41.6</ele>
        <time>2014-07-01T16:48:14Z</time>
      </trkpt>
      <trkpt lat="59.987235579892" lon="23.479787149082">
        <ele>41.6</ele>
        <time>2014-07-01T16:48:21Z</time>
      </trkpt>
      <trkpt lat="59.987240106118" lon="23.479767786893">
        <ele>41.6</ele>
        <time>2014-07-01T16:48:24Z</time>
      </trkpt>
      <trkpt lat="59.987289140233" lon="23.479697714209">
        <ele>41.6</ele>
        <time>2014-07-01T16:48:29Z</time>
      </trkpt>
      <trkpt lat="59.987297522133" lon="23.479699474408">
        <ele>41.6</ele>
        <time>2014-07-01T16:48:30Z</time>
      </trkpt>
      <trkpt lat="59.987332893751" lon="23.479711711982">
        <ele>41.6</ele>
        <time>2014-07-01T16:49:00Z</time>
      </trkpt>
      <trkpt lat="59.987295426658" lon="23.479643650954">
        <ele>41.6</ele>
        <time>2014-07-01T16:49:07Z</time>
      </trkpt>
      <trkpt lat="59.987251086407" lon="23.479585480568">
        <ele>41.6</ele>
        <time>2014-07-01T16:49:11Z</time>
      </trkpt>
      <trkpt lat="59.987166513036" lon="23.479512138943">
        <ele>41.6</ele>
        <time>2014-07-01T16:49:18Z</time>
      </trkpt>
      <trkpt lat="59.987085795339" lon="23.479414992722">
        <ele>41</ele>
        <time>2014-07-01T16:49:25Z</time>
      </trkpt>
      <trkpt lat="59.986979764304" lon="23.479324049107">
        <ele>40.2</ele>
        <time>2014-07-01T16:49:33Z</time>
      </trkpt>
      <trkpt lat="59.98686275298" lon="23.479234698053">
        <ele>39.8</ele>
        <time>2014-07-01T16:49:42Z</time>
      </trkpt>
      <trkpt lat="59.986779855989" lon="23.479155572917">
        <ele>39</ele>
        <time>2014-07-01T16:49:48Z</time>
      </trkpt>
      <trkpt lat="59.986725625096" lon="23.479102096395">
        <ele>38.4</ele>
        <time>2014-07-01T16:49:52Z</time>
      </trkpt>
      <trkpt lat="59.98662722159" lon="23.479024647639">
        <ele>38</ele>
        <time>2014-07-01T16:49:59Z</time>
      </trkpt>
      <trkpt lat="59.986520352365" lon="23.478925992676">
        <ele>37.6</ele>
        <time>2014-07-01T16:50:07Z</time>
      </trkpt>
      <trkpt lat="59.986455644097" lon="23.478861871141">
        <ele>37.6</ele>
        <time>2014-07-01T16:50:12Z</time>
      </trkpt>
      <trkpt lat="59.986366209224" lon="23.478787942783">
        <ele>37.6</ele>
        <time>2014-07-01T16:50:19Z</time>
      </trkpt>
      <trkpt lat="59.986278450731" lon="23.478719630298">
        <ele>37.4</ele>
        <time>2014-07-01T16:50:25Z</time>
      </trkpt>
      <trkpt lat="59.986189770229" lon="23.478642852094">
        <ele>36.6</ele>
        <time>2014-07-01T16:50:32Z</time>
      </trkpt>
      <trkpt lat="59.98609413275" lon="23.478582670052">
        <ele>36</ele>
        <time>2014-07-01T16:50:38Z</time>
      </trkpt>
      <trkpt lat="59.985981563833" lon="23.478501868536">
        <ele>35.6</ele>
        <time>2014-07-01T16:50:46Z</time>
      </trkpt>
      <trkpt lat="59.985890871675" lon="23.478418300993">
        <ele>35.6</ele>
        <time>2014-07-01T16:50:53Z</time>
      </trkpt>
      <trkpt lat="59.985821385724" lon="23.478354933829">
        <ele>35.4</ele>
        <time>2014-07-01T16:50:59Z</time>
      </trkpt>
      <trkpt lat="59.985761119863" lon="23.478196264462">
        <ele>35.4</ele>
        <time>2014-07-01T16:51:03Z</time>
      </trkpt>
      <trkpt lat="59.985660956158" lon="23.477918823572">
        <ele>35.4</ele>
        <time>2014-07-01T16:51:07Z</time>
      </trkpt>
      <trkpt lat="59.985547800508" lon="23.477564604478">
        <ele>35.4</ele>
        <time>2014-07-01T16:51:12Z</time>
      </trkpt>
      <trkpt lat="59.985524079731" lon="23.477493106871">
        <ele>35.4</ele>
        <time>2014-07-01T16:51:13Z</time>
      </trkpt>
      <trkpt lat="59.98544118274" lon="23.47726520301">
        <ele>35.4</ele>
        <time>2014-07-01T16:51:16Z</time>
      </trkpt>
      <trkpt lat="59.985323081769" lon="23.476902099102">
        <ele>35.4</ele>
        <time>2014-07-01T16:51:21Z</time>
      </trkpt>
      <trkpt lat="59.985225516453" lon="23.476559614668">
        <ele>34.8</ele>
        <time>2014-07-01T16:51:26Z</time>
      </trkpt>
      <trkpt lat="59.985203220599" lon="23.47648903907">
        <ele>34.8</ele>
        <time>2014-07-01T16:51:27Z</time>
      </trkpt>
      <trkpt lat="59.985178577813" lon="23.476420810404">
        <ele>34.6</ele>
        <time>2014-07-01T16:51:28Z</time>
      </trkpt>
      <trkpt lat="59.985065338344" lon="23.476083858024">
        <ele>34</ele>
        <time>2014-07-01T16:51:33Z</time>
      </trkpt>
      <trkpt lat="59.985050083286" lon="23.476026022914">
        <ele>34</ele>
        <time>2014-07-01T16:51:34Z</time>
      </trkpt>
      <trkpt lat="59.984969700865" lon="23.475726453808">
        <ele>33.8</ele>
        <time>2014-07-01T16:51:38Z</time>
      </trkpt>
      <trkpt lat="59.984854030645" lon="23.475414228033">
        <ele>33.6</ele>
        <time>2014-07-01T16:51:43Z</time>
      </trkpt>
      <trkpt lat="59.984780521382" lon="23.475123208465">
        <ele>33.6</ele>
        <time>2014-07-01T16:51:47Z</time>
      </trkpt>
      <trkpt lat="59.984663090963" lon="23.474753231399">
        <ele>33.4</ele>
        <time>2014-07-01T16:51:53Z</time>
      </trkpt>
      <trkpt lat="59.984560831783" lon="23.474484675323">
        <ele>33.4</ele>
        <time>2014-07-01T16:51:57Z</time>
      </trkpt>
      <trkpt lat="59.984452705273" lon="23.474254675987">
        <ele>33.4</ele>
        <time>2014-07-01T16:52:01Z</time>
      </trkpt>
      <trkpt lat="59.98433141918" lon="23.473973295604">
        <ele>33.4</ele>
        <time>2014-07-01T16:52:06Z</time>
      </trkpt>
      <trkpt lat="59.984256401175" lon="23.47381605116">
        <ele>33.4</ele>
        <time>2014-07-01T16:52:09Z</time>
      </trkpt>
      <trkpt lat="59.984149867226" lon="23.473576077363">
        <ele>33.4</ele>
        <time>2014-07-01T16:52:13Z</time>
      </trkpt>
      <trkpt lat="59.98402212707" lon="23.473302324509">
        <ele>33.4</ele>
        <time>2014-07-01T16:52:18Z</time>
      </trkpt>
      <trkpt lat="59.983919281157" lon="23.473005940525">
        <ele>33.4</ele>
        <time>2014-07-01T16:52:23Z</time>
      </trkpt>
      <trkpt lat="59.983891537068" lon="23.472924803733">
        <ele>33.4</ele>
        <time>2014-07-01T16:52:26Z</time>
      </trkpt>
      <trkpt lat="59.983884160996" lon="23.472860682198">
        <ele>33.4</ele>
        <time>2014-07-01T16:52:29Z</time>
      </trkpt>
      <trkpt lat="59.983868235386" lon="23.472748532376">
        <ele>33.4</ele>
        <time>2014-07-01T16:52:34Z</time>
      </trkpt>
      <trkpt lat="59.983865217902" lon="23.472664964833">
        <ele>33.4</ele>
        <time>2014-07-01T16:52:36Z</time>
      </trkpt>
      <trkpt lat="59.983865301721" lon="23.472648787766">
        <ele>33.4</ele>
        <time>2014-07-01T16:52:37Z</time>
      </trkpt>
      <trkpt lat="59.983915425483" lon="23.472586929344">
        <ele>33.4</ele>
        <time>2014-07-01T16:52:42Z</time>
      </trkpt>
      <trkpt lat="59.983975356068" lon="23.472438569714">
        <ele>33.4</ele>
        <time>2014-07-01T16:52:50Z</time>
      </trkpt>
      <trkpt lat="59.983989353841" lon="23.472408478693">
        <ele>33.4</ele>
        <time>2014-07-01T16:52:52Z</time>
      </trkpt>
      <trkpt lat="59.984076693239" lon="23.472260035244">
        <ele>33.4</ele>
        <time>2014-07-01T16:53:00Z</time>
      </trkpt>
      <trkpt lat="59.98409253503" lon="23.472195243157">
        <ele>33.4</ele>
        <time>2014-07-01T16:53:03Z</time>
      </trkpt>
      <trkpt lat="59.984110807572" lon="23.472101617334">
        <ele>33.4</ele>
        <time>2014-07-01T16:53:07Z</time>
      </trkpt>
      <trkpt lat="59.984188423966" lon="23.471976978481">
        <ele>33.4</ele>
        <time>2014-07-01T16:53:14Z</time>
      </trkpt>
      <trkpt lat="59.984255898261" lon="23.471939762845">
        <ele>33.4</ele>
        <time>2014-07-01T16:53:19Z</time>
      </trkpt>
      <trkpt lat="59.984311218801" lon="23.471809508119">
        <ele>33.4</ele>
        <time>2014-07-01T16:53:26Z</time>
      </trkpt>
      <trkpt lat="59.984317672864" lon="23.471794755975">
        <ele>33.4</ele>
        <time>2014-07-01T16:53:27Z</time>
      </trkpt>
      <trkpt lat="59.984355894328" lon="23.471701968342">
        <ele>33.4</ele>
        <time>2014-07-01T16:53:32Z</time>
      </trkpt>
      <trkpt lat="59.984405012262" lon="23.471561487698">
        <ele>34.4</ele>
        <time>2014-07-01T16:53:39Z</time>
      </trkpt>
      <trkpt lat="59.984411214868" lon="23.471548914848">
        <ele>34.6</ele>
        <time>2014-07-01T16:53:40Z</time>
      </trkpt>
      <trkpt lat="59.984450358341" lon="23.471459144699">
        <ele>35</ele>
        <time>2014-07-01T16:53:46Z</time>
      </trkpt>
      <trkpt lat="59.984450861255" lon="23.471440704519">
        <ele>35</ele>
        <time>2014-07-01T16:53:47Z</time>
      </trkpt>
      <trkpt lat="59.984464942847" lon="23.471386557445">
        <ele>35.2</ele>
        <time>2014-07-01T16:53:50Z</time>
      </trkpt>
      <trkpt lat="59.98449402804" lon="23.47130902487">
        <ele>35.2</ele>
        <time>2014-07-01T16:53:54Z</time>
      </trkpt>
      <trkpt lat="59.984502745216" lon="23.471176339393">
        <ele>35.4</ele>
        <time>2014-07-01T16:53:59Z</time>
      </trkpt>
      <trkpt lat="59.984523197052" lon="23.471136776825">
        <ele>35.4</ele>
        <time>2014-07-01T16:54:06Z</time>
      </trkpt>
      <trkpt lat="59.984543900345" lon="23.471050527074">
        <ele>35.4</ele>
        <time>2014-07-01T16:54:13Z</time>
      </trkpt>
      <trkpt lat="59.984599220885" lon="23.470918847425">
        <ele>35.4</ele>
        <time>2014-07-01T16:54:20Z</time>
      </trkpt>
      <trkpt lat="59.984611877554" lon="23.470906609851">
        <ele>35.4</ele>
        <time>2014-07-01T16:54:21Z</time>
      </trkpt>
      <trkpt lat="59.984692511432" lon="23.470881715608">
        <ele>35.4</ele>
        <time>2014-07-01T16:54:26Z</time>
      </trkpt>
      <trkpt lat="59.984741880823" lon="23.47089244444">
        <ele>35.4</ele>
        <time>2014-07-01T16:54:31Z</time>
      </trkpt>
      <trkpt lat="59.984780856658" lon="23.470900239607">
        <ele>35.4</ele>
        <time>2014-07-01T16:54:36Z</time>
      </trkpt>
      <trkpt lat="59.984858305414" lon="23.470962265667">
        <ele>35.4</ele>
        <time>2014-07-01T16:54:42Z</time>
      </trkpt>
      <trkpt lat="59.985021501007" lon="23.471263678791">
        <ele>35.4</ele>
        <time>2014-07-01T16:54:48Z</time>
      </trkpt>
      <trkpt lat="59.985170028275" lon="23.471578419136">
        <ele>35.4</ele>
        <time>2014-07-01T16:54:53Z</time>
      </trkpt>
      <trkpt lat="59.985276226948" lon="23.471864912478">
        <ele>35.4</ele>
        <time>2014-07-01T16:54:57Z</time>
      </trkpt>
      <trkpt lat="59.985460712567" lon="23.472248468222">
        <ele>35.4</ele>
        <time>2014-07-01T16:55:03Z</time>
      </trkpt>
      <trkpt lat="59.985485942086" lon="23.472313344128">
        <ele>35.4</ele>
        <time>2014-07-01T16:55:04Z</time>
      </trkpt>
      <trkpt lat="59.985526594301" lon="23.472450807288">
        <ele>35.4</ele>
        <time>2014-07-01T16:55:06Z</time>
      </trkpt>
      <trkpt lat="59.985631200413" lon="23.472781976157">
        <ele>35.4</ele>
        <time>2014-07-01T16:55:11Z</time>
      </trkpt>
      <trkpt lat="59.985673026094" lon="23.472928491769">
        <ele>35.4</ele>
        <time>2014-07-01T16:55:13Z</time>
      </trkpt>
      <trkpt lat="59.98577310598" lon="23.473173662344">
        <ele>35.4</ele>
        <time>2014-07-01T16:55:17Z</time>
      </trkpt>
      <trkpt lat="59.985798670775" lon="23.473241220458">
        <ele>35.4</ele>
        <time>2014-07-01T16:55:18Z</time>
      </trkpt>
      <trkpt lat="59.985861199749" lon="23.473449343035">
        <ele>35.4</ele>
        <time>2014-07-01T16:55:21Z</time>
      </trkpt>
      <trkpt lat="59.985918196669" lon="23.47367942619">
        <ele>35.4</ele>
        <time>2014-07-01T16:55:24Z</time>
      </trkpt>
      <trkpt lat="59.986004530239" lon="23.474046218134">
        <ele>36</ele>
        <time>2014-07-01T16:55:29Z</time>
      </trkpt>
      <trkpt lat="59.986103771935" lon="23.474389876034">
        <ele>36.6</ele>
        <time>2014-07-01T16:55:34Z</time>
      </trkpt>
      <trkpt lat="59.986207623676" lon="23.474725906405">
        <ele>37</ele>
        <time>2014-07-01T16:55:39Z</time>
      </trkpt>
      <trkpt lat="59.986245593683" lon="23.474850964353">
        <ele>37</ele>
        <time>2014-07-01T16:55:41Z</time>
      </trkpt>
      <trkpt lat="59.986344416284" lon="23.475169308915">
        <ele>37.2</ele>
        <time>2014-07-01T16:55:46Z</time>
      </trkpt>
      <trkpt lat="59.986457488115" lon="23.475575998703">
        <ele>37.4</ele>
        <time>2014-07-01T16:55:52Z</time>
      </trkpt>
      <trkpt lat="59.986564022064" lon="23.475951507823">
        <ele>37.4</ele>
        <time>2014-07-01T16:55:58Z</time>
      </trkpt>
      <trkpt lat="59.986667957624" lon="23.476276893181">
        <ele>37.4</ele>
        <time>2014-07-01T16:56:03Z</time>
      </trkpt>
      <trkpt lat="59.986741131611" lon="23.476525332697">
        <ele>37.4</ele>
        <time>2014-07-01T16:56:07Z</time>
      </trkpt>
      <trkpt lat="59.986854873994" lon="23.476885083845">
        <ele>37.4</ele>
        <time>2014-07-01T16:56:13Z</time>
      </trkpt>
      <trkpt lat="59.986931568379" lon="23.477198063991">
        <ele>37.4</ele>
        <time>2014-07-01T16:56:18Z</time>
      </trkpt>
      <trkpt lat="59.986962413771" lon="23.477397217935">
        <ele>37.4</ele>
        <time>2014-07-01T16:56:22Z</time>
      </trkpt>
      <trkpt lat="59.986989235851" lon="23.47756443684">
        <ele>37.4</ele>
        <time>2014-07-01T16:56:29Z</time>
      </trkpt>
      <trkpt lat="59.987023434003" lon="23.477732410116">
        <ele>37.4</ele>
        <time>2014-07-01T16:56:36Z</time>
      </trkpt>
      <trkpt lat="59.987027373496" lon="23.477749341554">
        <ele>37.4</ele>
        <time>2014-07-01T16:56:37Z</time>
      </trkpt>
      <trkpt lat="59.987041958002" lon="23.47782008479">
        <ele>37.4</ele>
        <time>2014-07-01T16:56:40Z</time>
      </trkpt>
      <trkpt lat="59.987074647412" lon="23.47798437003">
        <ele>37.4</ele>
        <time>2014-07-01T16:56:47Z</time>
      </trkpt>
      <trkpt lat="59.987129884133" lon="23.478226774578">
        <ele>37.4</ele>
        <time>2014-07-01T16:56:57Z</time>
      </trkpt>
      <trkpt lat="59.987173553832" lon="23.478396675691">
        <ele>37.4</ele>
        <time>2014-07-01T16:57:04Z</time>
      </trkpt>
      <trkpt lat="59.987180175533" lon="23.4784143615">
        <ele>37.4</ele>
        <time>2014-07-01T16:57:05Z</time>
      </trkpt>
      <trkpt lat="59.987214876599" lon="23.478534138851">
        <ele>38.2</ele>
        <time>2014-07-01T16:57:10Z</time>
      </trkpt>
      <trkpt lat="59.987240189937" lon="23.478641175714">
        <ele>38.6</ele>
        <time>2014-07-01T16:57:14Z</time>
      </trkpt>
      <trkpt lat="59.987289224052" lon="23.478824655505">
        <ele>39.2</ele>
        <time>2014-07-01T16:57:21Z</time>
      </trkpt>
      <trkpt lat="59.987333396665" lon="23.478969159461">
        <ele>39.4</ele>
        <time>2014-07-01T16:57:27Z</time>
      </trkpt>
      <trkpt lat="59.987378491287" lon="23.479197063322">
        <ele>39.4</ele>
        <time>2014-07-01T16:57:35Z</time>
      </trkpt>
      <trkpt lat="59.987385867359" lon="23.479394121791">
        <ele>39.4</ele>
        <time>2014-07-01T16:57:42Z</time>
      </trkpt>
      <trkpt lat="59.987386873187" lon="23.47941935131">
        <ele>39.4</ele>
        <time>2014-07-01T16:57:43Z</time>
      </trkpt>
      <trkpt lat="59.987370779939" lon="23.479610290992">
        <ele>39.6</ele>
        <time>2014-07-01T16:57:50Z</time>
      </trkpt>
      <trkpt lat="59.987344460773" lon="23.479695786372">
        <ele>39.6</ele>
        <time>2014-07-01T16:57:56Z</time>
      </trkpt>
      <trkpt lat="59.987327696973" lon="23.479688829395">
        <ele>39.6</ele>
        <time>2014-07-01T16:58:03Z</time>
      </trkpt>
      <trkpt lat="59.987331636466" lon="23.479726045031">
        <ele>39.6</ele>
        <time>2014-07-01T16:58:11Z</time>
      </trkpt>
      <trkpt lat="59.987303976196" lon="23.479784550693">
        <ele>39.6</ele>
        <time>2014-07-01T16:58:38Z</time>
      </trkpt>
      <trkpt lat="59.987294253192" lon="23.479806008357">
        <ele>39.6</ele>
        <time>2014-07-01T16:58:59Z</time>
      </trkpt>
      <trkpt lat="59.987314788847" lon="23.479797794095">
        <ele>40.4</ele>
        <time>2014-07-01T16:59:04Z</time>
      </trkpt>
      <trkpt lat="59.987314453571" lon="23.479784718331">
        <ele>40.8</ele>
        <time>2014-07-01T16:59:09Z</time>
      </trkpt>
      <trkpt lat="59.987309089155" lon="23.479777509897">
        <ele>41.4</ele>
        <time>2014-07-01T16:59:22Z</time>
      </trkpt>
      <trkpt lat="59.987307328956" lon="23.479769630911">
        <ele>41.4</ele>
        <time>2014-07-01T16:59:29Z</time>
      </trkpt>
      <trkpt lat="59.987294085554" lon="23.479780108286">
        <ele>41.6</ele>
        <time>2014-07-01T16:59:39Z</time>
      </trkpt>
      <trkpt lat="59.987284697826" lon="23.479779102458">
        <ele>42.2</ele>
        <time>2014-07-01T16:59:53Z</time>
      </trkpt>
      <trkpt lat="59.987282267075" lon="23.479779689191">
        <ele>43.2</ele>
        <time>2014-07-01T17:00:04Z</time>
      </trkpt>
      <trkpt lat="59.987277908487" lon="23.479781784666">
        <ele>43.6</ele>
        <time>2014-07-01T17:00:20Z</time>
      </trkpt>
      <trkpt lat="59.987271957338" lon="23.479768289807">
        <ele>44.4</ele>
        <time>2014-07-01T17:00:25Z</time>
      </trkpt>
      <trkpt lat="59.987286960939" lon="23.479754124396">
        <ele>45</ele>
        <time>2014-07-01T17:00:31Z</time>
      </trkpt>
      <trkpt lat="59.987218313178" lon="23.479598304875">
        <ele>45.4</ele>
        <time>2014-07-01T17:00:43Z</time>
      </trkpt>
      <trkpt lat="59.98720221993" lon="23.47957776922">
        <ele>45.4</ele>
        <time>2014-07-01T17:00:45Z</time>
      </trkpt>
      <trkpt lat="59.987136757291" lon="23.479522197223">
        <ele>45.6</ele>
        <time>2014-07-01T17:00:51Z</time>
      </trkpt>
      <trkpt lat="59.987029971885" lon="23.479406359365">
        <ele>44.6</ele>
        <time>2014-07-01T17:01:01Z</time>
      </trkpt>
      <trkpt lat="59.98692226447" lon="23.479299825416">
        <ele>44</ele>
        <time>2014-07-01T17:01:10Z</time>
      </trkpt>
      <trkpt lat="59.98684766556" lon="23.479232351121">
        <ele>43</ele>
        <time>2014-07-01T17:01:16Z</time>
      </trkpt>
      <trkpt lat="59.986776167953" lon="23.479165128283">
        <ele>42.2</ele>
        <time>2014-07-01T17:01:22Z</time>
      </trkpt>
      <trkpt lat="59.986761415809" lon="23.479155153822">
        <ele>42.2</ele>
        <time>2014-07-01T17:01:23Z</time>
      </trkpt>
      <trkpt lat="59.986693690057" lon="23.47911592653">
        <ele>42</ele>
        <time>2014-07-01T17:01:28Z</time>
      </trkpt>
      <trkpt lat="59.986669550185" lon="23.479094887961">
        <ele>41.8</ele>
        <time>2014-07-01T17:01:30Z</time>
      </trkpt>
      <trkpt lat="59.986609032867" lon="23.479048116959">
        <ele>41.8</ele>
        <time>2014-07-01T17:01:35Z</time>
      </trkpt>
      <trkpt lat="59.986501576909" lon="23.478983995424">
        <ele>40.4</ele>
        <time>2014-07-01T17:01:43Z</time>
      </trkpt>
      <trkpt lat="59.986491518629" lon="23.478979553017">
        <ele>40.4</ele>
        <time>2014-07-01T17:01:44Z</time>
      </trkpt>
      <trkpt lat="59.986450028224" lon="23.478932279101">
        <ele>40</ele>
        <time>2014-07-01T17:01:48Z</time>
      </trkpt>
      <trkpt lat="59.986330250873" lon="23.478812920845">
        <ele>39.6</ele>
        <time>2014-07-01T17:01:57Z</time>
      </trkpt>
      <trkpt lat="59.986267973356" lon="23.478757600305">
        <ele>39.6</ele>
        <time>2014-07-01T17:02:02Z</time>
      </trkpt>
      <trkpt lat="59.986190105505" lon="23.478705548706">
        <ele>39.4</ele>
        <time>2014-07-01T17:02:08Z</time>
      </trkpt>
      <trkpt lat="59.98610251465" lon="23.478618209308">
        <ele>39.4</ele>
        <time>2014-07-01T17:02:15Z</time>
      </trkpt>
      <trkpt lat="59.985995477787" lon="23.478515028119">
        <ele>38.2</ele>
        <time>2014-07-01T17:02:24Z</time>
      </trkpt>
      <trkpt lat="59.985893972978" lon="23.478404806134">
        <ele>37.8</ele>
        <time>2014-07-01T17:02:32Z</time>
      </trkpt>
      <trkpt lat="59.985881064852" lon="23.478393993483">
        <ele>37.8</ele>
        <time>2014-07-01T17:02:33Z</time>
      </trkpt>
      <trkpt lat="59.985801269164" lon="23.47829617671">
        <ele>37.6</ele>
        <time>2014-07-01T17:02:40Z</time>
      </trkpt>
      <trkpt lat="59.985713007757" lon="23.478085874839">
        <ele>37.4</ele>
        <time>2014-07-01T17:02:46Z</time>
      </trkpt>
      <trkpt lat="59.985607647274" lon="23.477793346529">
        <ele>37.4</ele>
        <time>2014-07-01T17:02:50Z</time>
      </trkpt>
      <trkpt lat="59.985535395296" lon="23.477565358849">
        <ele>37.4</ele>
        <time>2014-07-01T17:02:53Z</time>
      </trkpt>
      <trkpt lat="59.985462808042" lon="23.47734064011">
        <ele>37.4</ele>
        <time>2014-07-01T17:02:56Z</time>
      </trkpt>
      <trkpt lat="59.985341605768" lon="23.476952055226">
        <ele>37.4</ele>
        <time>2014-07-01T17:03:01Z</time>
      </trkpt>
      <trkpt lat="59.985320734837" lon="23.476880641438">
        <ele>37.4</ele>
        <time>2014-07-01T17:03:02Z</time>
      </trkpt>
      <trkpt lat="59.985233060163" lon="23.47658962187">
        <ele>37.4</ele>
        <time>2014-07-01T17:03:06Z</time>
      </trkpt>
      <trkpt lat="59.985154102665" lon="23.476297512655">
        <ele>37.4</ele>
        <time>2014-07-01T17:03:10Z</time>
      </trkpt>
      <trkpt lat="59.985042036662" lon="23.475932732367">
        <ele>36.6</ele>
        <time>2014-07-01T17:03:15Z</time>
      </trkpt>
      <trkpt lat="59.984996355307" lon="23.47579334137">
        <ele>36.2</ele>
        <time>2014-07-01T17:03:17Z</time>
      </trkpt>
      <trkpt lat="59.984863753649" lon="23.475366870298">
        <ele>35.8</ele>
        <time>2014-07-01T17:03:23Z</time>
      </trkpt>
      <trkpt lat="59.984840368148" lon="23.475296713795">
        <ele>35.8</ele>
        <time>2014-07-01T17:03:24Z</time>
      </trkpt>
      <trkpt lat="59.984715729295" lon="23.474860184443">
        <ele>35.6</ele>
        <time>2014-07-01T17:03:30Z</time>
      </trkpt>
      <trkpt lat="59.984690918871" lon="23.474789944121">
        <ele>35.6</ele>
        <time>2014-07-01T17:03:31Z</time>
      </trkpt>
      <trkpt lat="59.984642974403" lon="23.474657677739">
        <ele>35.2</ele>
        <time>2014-07-01T17:03:33Z</time>
      </trkpt>
      <trkpt lat="59.984503834863" lon="23.474255849453">
        <ele>34.4</ele>
        <time>2014-07-01T17:03:39Z</time>
      </trkpt>
      <trkpt lat="59.984483383027" lon="23.474193404298">
        <ele>34.2</ele>
        <time>2014-07-01T17:03:40Z</time>
      </trkpt>
      <trkpt lat="59.984369724463" lon="23.473941025289">
        <ele>33.8</ele>
        <time>2014-07-01T17:03:44Z</time>
      </trkpt>
      <trkpt lat="59.984211641829" lon="23.473607760945">
        <ele>33.6</ele>
        <time>2014-07-01T17:03:50Z</time>
      </trkpt>
      <trkpt lat="59.984186160853" lon="23.473555038794">
        <ele>33.6</ele>
        <time>2014-07-01T17:03:51Z</time>
      </trkpt>
      <trkpt lat="59.984051547539" lon="23.473251865471">
        <ele>33.4</ele>
        <time>2014-07-01T17:03:56Z</time>
      </trkpt>
      <trkpt lat="59.983935122948" lon="23.472987165069">
        <ele>32.8</ele>
        <time>2014-07-01T17:04:01Z</time>
      </trkpt>
      <trkpt lat="59.983923891202" lon="23.472960175351">
        <ele>32.6</ele>
        <time>2014-07-01T17:04:02Z</time>
      </trkpt>
      <trkpt lat="59.9838855021" lon="23.472822460734">
        <ele>32</ele>
        <time>2014-07-01T17:04:08Z</time>
      </trkpt>
      <trkpt lat="59.983882652254" lon="23.472717854622">
        <ele>31.6</ele>
        <time>2014-07-01T17:04:13Z</time>
      </trkpt>
      <trkpt lat="59.983909558153" lon="23.472628922663">
        <ele>31.4</ele>
        <time>2014-07-01T17:04:18Z</time>
      </trkpt>
      <trkpt lat="59.983945181228" lon="23.472569243535">
        <ele>31.4</ele>
        <time>2014-07-01T17:04:23Z</time>
      </trkpt>
      <trkpt lat="59.983965800702" lon="23.47249506372">
        <ele>31.2</ele>
        <time>2014-07-01T17:04:27Z</time>
      </trkpt>
      <trkpt lat="59.984005782365" lon="23.472447203071">
        <ele>31.2</ele>
        <time>2014-07-01T17:04:31Z</time>
      </trkpt>
      <trkpt lat="59.984018690491" lon="23.472430271633">
        <ele>31.2</ele>
        <time>2014-07-01T17:04:32Z</time>
      </trkpt>
      <trkpt lat="59.984071747918" lon="23.472363300252">
        <ele>31.2</ele>
        <time>2014-07-01T17:04:38Z</time>
      </trkpt>
      <trkpt lat="59.984093457039" lon="23.472310578101">
        <ele>31.2</ele>
        <time>2014-07-01T17:04:41Z</time>
      </trkpt>
      <trkpt lat="59.98410510788" lon="23.472265651117">
        <ele>31.2</ele>
        <time>2014-07-01T17:04:43Z</time>
      </trkpt>
      <trkpt lat="59.984112483952" lon="23.472189711103">
        <ele>31.2</ele>
        <time>2014-07-01T17:04:47Z</time>
      </trkpt>
      <trkpt lat="59.984112483952" lon="23.47214889125">
        <ele>31.2</ele>
        <time>2014-07-01T17:04:49Z</time>
      </trkpt>
      <trkpt lat="59.984147687932" lon="23.472028443347">
        <ele>31.2</ele>
        <time>2014-07-01T17:04:55Z</time>
      </trkpt>
      <trkpt lat="59.98415539928" lon="23.471923669597">
        <ele>31.2</ele>
        <time>2014-07-01T17:05:01Z</time>
      </trkpt>
      <trkpt lat="59.984156153651" lon="23.471800623305">
        <ele>31.2</ele>
        <time>2014-07-01T17:05:07Z</time>
      </trkpt>
      <trkpt lat="59.984153471443" lon="23.471783021315">
        <ele>31.2</ele>
        <time>2014-07-01T17:05:08Z</time>
      </trkpt>
      <trkpt lat="59.984143413163" lon="23.471645306698">
        <ele>31.2</ele>
        <time>2014-07-01T17:05:14Z</time>
      </trkpt>
      <trkpt lat="59.984149867226" lon="23.471562661164">
        <ele>31.6</ele>
        <time>2014-07-01T17:05:18Z</time>
      </trkpt>
      <trkpt lat="59.984136037091" lon="23.47140793129">
        <ele>32.4</ele>
        <time>2014-07-01T17:05:25Z</time>
      </trkpt>
      <trkpt lat="59.984133019607" lon="23.471381528305">
        <ele>32.6</ele>
        <time>2014-07-01T17:05:26Z</time>
      </trkpt>
      <trkpt lat="59.98410426969" lon="23.47124113148">
        <ele>34</ele>
        <time>2014-07-01T17:05:33Z</time>
      </trkpt>
      <trkpt lat="59.984102425672" lon="23.47119586922">
        <ele>34.2</ele>
        <time>2014-07-01T17:05:35Z</time>
      </trkpt>
      <trkpt lat="59.984117261635" lon="23.471163515086">
        <ele>34.6</ele>
        <time>2014-07-01T17:05:37Z</time>
      </trkpt>
      <trkpt lat="59.984146095371" lon="23.471127808192">
        <ele>35.4</ele>
        <time>2014-07-01T17:05:40Z</time>
      </trkpt>
      <trkpt lat="59.98416461937" lon="23.4711053447">
        <ele>35.8</ele>
        <time>2014-07-01T17:05:42Z</time>
      </trkpt>
      <trkpt lat="59.984252461682" lon="23.47101817294">
        <ele>36.6</ele>
        <time>2014-07-01T17:05:49Z</time>
      </trkpt>
      <trkpt lat="59.984301998711" lon="23.470952961758">
        <ele>37.2</ele>
        <time>2014-07-01T17:05:56Z</time>
      </trkpt>
      <trkpt lat="59.984338879071" lon="23.470927313144">
        <ele>38</ele>
        <time>2014-07-01T17:06:00Z</time>
      </trkpt>
      <trkpt lat="59.984366287884" lon="23.47090334091">
        <ele>38.2</ele>
        <time>2014-07-01T17:06:02Z</time>
      </trkpt>
      <trkpt lat="59.984429822686" lon="23.470879787771">
        <ele>38.6</ele>
        <time>2014-07-01T17:06:06Z</time>
      </trkpt>
      <trkpt lat="59.984517245903" lon="23.470835028425">
        <ele>39</ele>
        <time>2014-07-01T17:06:12Z</time>
      </trkpt>
      <trkpt lat="59.984563933086" lon="23.470832765312">
        <ele>39.6</ele>
        <time>2014-07-01T17:06:16Z</time>
      </trkpt>
      <trkpt lat="59.984662420411" lon="23.470846008714">
        <ele>40.6</ele>
        <time>2014-07-01T17:06:23Z</time>
      </trkpt>
      <trkpt lat="59.984676418184" lon="23.470850618759">
        <ele>40.6</ele>
        <time>2014-07-01T17:06:24Z</time>
      </trkpt>
      <trkpt lat="59.984789238558" lon="23.470878614305">
        <ele>41.2</ele>
        <time>2014-07-01T17:06:33Z</time>
      </trkpt>
      <trkpt lat="59.984845062012" lon="23.470948351713">
        <ele>41.2</ele>
        <time>2014-07-01T17:06:38Z</time>
      </trkpt>
      <trkpt lat="59.984926701718" lon="23.471118252826">
        <ele>41.4</ele>
        <time>2014-07-01T17:06:42Z</time>
      </trkpt>
      <trkpt lat="59.985059303376" lon="23.47136769817">
        <ele>41.4</ele>
        <time>2014-07-01T17:06:46Z</time>
      </trkpt>
      <trkpt lat="59.985183187858" lon="23.471631225106">
        <ele>41.4</ele>
        <time>2014-07-01T17:06:50Z</time>
      </trkpt>
      <trkpt lat="59.985244459547" lon="23.471790732663">
        <ele>41.4</ele>
        <time>2014-07-01T17:06:52Z</time>
      </trkpt>
      <trkpt lat="59.985412432823" lon="23.472175042778">
        <ele>41.4</ele>
        <time>2014-07-01T17:06:57Z</time>
      </trkpt>
      <trkpt lat="59.985470184114" lon="23.472304626952">
        <ele>41.4</ele>
        <time>2014-07-01T17:06:59Z</time>
      </trkpt>
      <trkpt lat="59.985599013917" lon="23.472744341426">
        <ele>41.4</ele>
        <time>2014-07-01T17:07:05Z</time>
      </trkpt>
      <trkpt lat="59.985616196812" lon="23.472817431594">
        <ele>41.4</ele>
        <time>2014-07-01T17:07:06Z</time>
      </trkpt>
      <trkpt lat="59.985742344407" lon="23.473223367011">
        <ele>41.4</ele>
        <time>2014-07-01T17:07:12Z</time>
      </trkpt>
      <trkpt lat="59.985836640782" lon="23.473515811502">
        <ele>41.4</ele>
        <time>2014-07-01T17:07:16Z</time>
      </trkpt>
      <trkpt lat="59.985938313229" lon="23.473789983451">
        <ele>41.4</ele>
        <time>2014-07-01T17:07:20Z</time>
      </trkpt>
      <trkpt lat="59.985995729244" lon="23.473993076888">
        <ele>41.4</ele>
        <time>2014-07-01T17:07:23Z</time>
      </trkpt>
      <trkpt lat="59.986057587666" lon="23.474315360943">
        <ele>41.4</ele>
        <time>2014-07-01T17:07:28Z</time>
      </trkpt>
      <trkpt lat="59.986137550992" lon="23.474588946159">
        <ele>41.4</ele>
        <time>2014-07-01T17:07:32Z</time>
      </trkpt>
      <trkpt lat="59.986153979516" lon="23.474671172598">
        <ele>41.4</ele>
        <time>2014-07-01T17:07:33Z</time>
      </trkpt>
      <trkpt lat="59.986218855422" lon="23.474882815573">
        <ele>41.4</ele>
        <time>2014-07-01T17:07:36Z</time>
      </trkpt>
      <trkpt lat="59.986330250873" lon="23.475220354686">
        <ele>41.4</ele>
        <time>2014-07-01T17:07:41Z</time>
      </trkpt>
      <trkpt lat="59.986348439596" lon="23.475282213108">
        <ele>41.4</ele>
        <time>2014-07-01T17:07:42Z</time>
      </trkpt>
      <trkpt lat="59.98641935047" lon="23.47556032455">
        <ele>41.4</ele>
        <time>2014-07-01T17:07:46Z</time>
      </trkpt>
      <trkpt lat="59.986435108442" lon="23.475632744166">
        <ele>41.4</ele>
        <time>2014-07-01T17:07:47Z</time>
      </trkpt>
      <trkpt lat="59.986531332654" lon="23.47595511204">
        <ele>41.4</ele>
        <time>2014-07-01T17:07:52Z</time>
      </trkpt>
      <trkpt lat="59.986645158856" lon="23.476265577616">
        <ele>41.4</ele>
        <time>2014-07-01T17:07:57Z</time>
      </trkpt>
      <trkpt lat="59.986750519339" lon="23.47657369626">
        <ele>41.4</ele>
        <time>2014-07-01T17:08:02Z</time>
      </trkpt>
      <trkpt lat="59.986829979751" lon="23.4768134186">
        <ele>41.4</ele>
        <time>2014-07-01T17:08:06Z</time>
      </trkpt>
      <trkpt lat="59.986915139855" lon="23.47715288555">
        <ele>41.4</ele>
        <time>2014-07-01T17:08:11Z</time>
      </trkpt>
      <trkpt lat="59.986962329952" lon="23.477345501612">
        <ele>41.4</ele>
        <time>2014-07-01T17:08:15Z</time>
      </trkpt>
      <trkpt lat="59.986969119291" lon="23.477371317864">
        <ele>41.4</ele>
        <time>2014-07-01T17:08:16Z</time>
      </trkpt>
      <trkpt lat="59.986974483707" lon="23.477416663943">
        <ele>41.4</ele>
        <time>2014-07-01T17:08:22Z</time>
      </trkpt>
      <trkpt lat="59.986998623579" lon="23.477548846506">
        <ele>42.2</ele>
        <time>2014-07-01T17:08:29Z</time>
      </trkpt>
      <trkpt lat="59.987049501712" lon="23.477762417318">
        <ele>42.6</ele>
        <time>2014-07-01T17:08:34Z</time>
      </trkpt>
      <trkpt lat="59.987055452861" lon="23.477811619071">
        <ele>42.8</ele>
        <time>2014-07-01T17:08:35Z</time>
      </trkpt>
      <trkpt lat="59.987078754543" lon="23.477969450248">
        <ele>43</ele>
        <time>2014-07-01T17:08:41Z</time>
      </trkpt>
      <trkpt lat="59.987082945493" lon="23.477993087206">
        <ele>43.2</ele>
        <time>2014-07-01T17:08:42Z</time>
      </trkpt>
      <trkpt lat="59.987093674325" lon="23.478045306443">
        <ele>43.2</ele>
        <time>2014-07-01T17:08:44Z</time>
      </trkpt>
      <trkpt lat="59.98711588636" lon="23.478183440155">
        <ele>43.2</ele>
        <time>2014-07-01T17:08:49Z</time>
      </trkpt>
      <trkpt lat="59.987148827227" lon="23.478343702083">
        <ele>43.4</ele>
        <time>2014-07-01T17:08:55Z</time>
      </trkpt>
      <trkpt lat="59.987156370937" lon="23.478387707058">
        <ele>43.4</ele>
        <time>2014-07-01T17:08:57Z</time>
      </trkpt>
      <trkpt lat="59.987209596002" lon="23.47862558538">
        <ele>43.4</ele>
        <time>2014-07-01T17:09:06Z</time>
      </trkpt>
      <trkpt lat="59.98723993848" lon="23.478762797083">
        <ele>43.4</ele>
        <time>2014-07-01T17:09:12Z</time>
      </trkpt>
      <trkpt lat="59.987244213249" lon="23.47878987062">
        <ele>43.4</ele>
        <time>2014-07-01T17:09:13Z</time>
      </trkpt>
      <trkpt lat="59.987269107492" lon="23.478909228876">
        <ele>43.4</ele>
        <time>2014-07-01T17:09:18Z</time>
      </trkpt>
      <trkpt lat="59.987274974822" lon="23.478986677632">
        <ele>43.4</ele>
        <time>2014-07-01T17:09:21Z</time>
      </trkpt>
      <trkpt lat="59.987292157717" lon="23.479179126056">
        <ele>43.4</ele>
        <time>2014-07-01T17:09:28Z</time>
      </trkpt>
      <trkpt lat="59.987283105265" lon="23.47937241267">
        <ele>43.4</ele>
        <time>2014-07-01T17:09:35Z</time>
      </trkpt>
      <trkpt lat="59.987283272903" lon="23.479533177512">
        <ele>43.4</ele>
        <time>2014-07-01T17:09:41Z</time>
      </trkpt>
      <trkpt lat="59.987320153263" lon="23.479681201866">
        <ele>43.4</ele>
        <time>2014-07-01T17:09:47Z</time>
      </trkpt>
      <trkpt lat="59.987328199887" lon="23.479700731693">
        <ele>43.4</ele>
        <time>2014-07-01T17:09:48Z</time>
      </trkpt>
      <trkpt lat="59.987336162692" lon="23.479717663131">
        <ele>43.4</ele>
        <time>2014-07-01T17:10:02Z</time>
      </trkpt>
      <trkpt lat="59.987317219598" lon="23.479760913735">
        <ele>42.4</ele>
        <time>2014-07-01T17:10:27Z</time>
      </trkpt>
      <trkpt lat="59.987296851581" lon="23.479837691939">
        <ele>41.4</ele>
        <time>2014-07-01T17:10:52Z</time>
      </trkpt>
      <trkpt lat="59.987300539617" lon="23.479846073839">
        <ele>41.4</ele>
        <time>2014-07-01T17:11:08Z</time>
      </trkpt>
      <trkpt lat="59.987305736395" lon="23.479878092697">
        <ele>41.4</ele>
        <time>2014-07-01T17:11:12Z</time>
      </trkpt>
      <trkpt lat="59.987297941228" lon="23.479862418544">
        <ele>41.4</ele>
        <time>2014-07-01T17:11:19Z</time>
      </trkpt>
      <trkpt lat="59.987283440541" lon="23.479852611721">
        <ele>41.4</ele>
        <time>2014-07-01T17:11:31Z</time>
      </trkpt>
      <trkpt lat="59.987294169373" lon="23.479836853749">
        <ele>41.4</ele>
        <time>2014-07-01T17:11:37Z</time>
      </trkpt>
      <trkpt lat="59.987286793301" lon="23.47980659509">
        <ele>41.4</ele>
        <time>2014-07-01T17:12:04Z</time>
      </trkpt>
      <trkpt lat="59.987285871292" lon="23.479805924538">
        <ele>41.4</ele>
        <time>2014-07-01T17:12:08Z</time>
      </trkpt>
      <trkpt lat="59.987282350894" lon="23.479806762728">
        <ele>41.4</ele>
        <time>2014-07-01T17:12:13Z</time>
      </trkpt>
      <trkpt lat="59.987279417229" lon="23.479798799923">
        <ele>41.4</ele>
        <time>2014-07-01T17:12:20Z</time>
      </trkpt>
      <trkpt lat="59.987277405573" lon="23.479799386656">
        <ele>41.4</ele>
        <time>2014-07-01T17:12:24Z</time>
      </trkpt>
      <trkpt lat="59.987271873519" lon="23.479818078293">
        <ele>41.4</ele>
        <time>2014-07-01T17:12:35Z</time>
      </trkpt>
      <trkpt lat="59.987266592922" lon="23.479829058582">
        <ele>41.4</ele>
        <time>2014-07-01T17:12:47Z</time>
      </trkpt>
      <trkpt lat="59.98726005504" lon="23.479842385803">
        <ele>41.4</ele>
        <time>2014-07-01T17:12:53Z</time>
      </trkpt>
      <trkpt lat="59.987255444995" lon="23.479861328897">
        <ele>41.4</ele>
        <time>2014-07-01T17:12:59Z</time>
      </trkpt>
      <trkpt lat="59.987255612633" lon="23.47986107744">
        <ele>41.4</ele>
        <time>2014-07-01T17:13:03Z</time>
      </trkpt>
      <trkpt lat="59.987255444995" lon="23.479868788788">
        <ele>41.4</ele>
        <time>2014-07-01T17:13:08Z</time>
      </trkpt>
      <trkpt lat="59.9872550259" lon="23.479875410489">
        <ele>41.4</ele>
        <time>2014-07-01T17:13:15Z</time>
      </trkpt>
      <trkpt lat="59.987264078352" lon="23.479884798217">
        <ele>41.4</ele>
        <time>2014-07-01T17:13:23Z</time>
      </trkpt>
      <trkpt lat="59.987273549899" lon="23.479868704969">
        <ele>41.4</ele>
        <time>2014-07-01T17:13:27Z</time>
      </trkpt>
      <trkpt lat="59.987284530188" lon="23.479864597838">
        <ele>41.4</ele>
        <time>2014-07-01T17:13:28Z</time>
      </trkpt>
      <trkpt lat="59.987299030875" lon="23.479787987272">
        <ele>41.4</ele>
        <time>2014-07-01T17:13:32Z</time>
      </trkpt>
      <trkpt lat="59.987268269302" lon="23.479750603998">
        <ele>41.4</ele>
        <time>2014-07-01T17:13:35Z</time>
      </trkpt>
      <trkpt lat="59.987227197992" lon="23.479733169646">
        <ele>41.4</ele>
        <time>2014-07-01T17:13:40Z</time>
      </trkpt>
      <trkpt lat="59.98721060183" lon="23.479718752778">
        <ele>41.4</ele>
        <time>2014-07-01T17:13:42Z</time>
      </trkpt>
      <trkpt lat="59.987186797234" lon="23.47970349772">
        <ele>41.4</ele>
        <time>2014-07-01T17:13:47Z</time>
      </trkpt>
      <trkpt lat="59.987177241868" lon="23.479671395043">
        <ele>41.4</ele>
        <time>2014-07-01T17:13:49Z</time>
      </trkpt>
      <trkpt lat="59.987117981835" lon="23.479554216081">
        <ele>41.4</ele>
        <time>2014-07-01T17:13:57Z</time>
      </trkpt>
      <trkpt lat="59.987054782309" lon="23.479489591632">
        <ele>41.4</ele>
        <time>2014-07-01T17:14:03Z</time>
      </trkpt>
      <trkpt lat="59.986968029644" lon="23.479407449012">
        <ele>41.4</ele>
        <time>2014-07-01T17:14:11Z</time>
      </trkpt>
      <trkpt lat="59.986900555349" lon="23.479343746572">
        <ele>41.4</ele>
        <time>2014-07-01T17:14:17Z</time>
      </trkpt>
      <trkpt lat="59.986799301997" lon="23.479249114921">
        <ele>40.6</ele>
        <time>2014-07-01T17:14:26Z</time>
      </trkpt>
      <trkpt lat="59.986789159898" lon="23.479231848207">
        <ele>40.4</ele>
        <time>2014-07-01T17:14:27Z</time>
      </trkpt>
      <trkpt lat="59.986710705314" lon="23.479126403905">
        <ele>39.8</ele>
        <time>2014-07-01T17:14:34Z</time>
      </trkpt>
      <trkpt lat="59.986611966532" lon="23.479054571022">
        <ele>39.6</ele>
        <time>2014-07-01T17:14:42Z</time>
      </trkpt>
      <trkpt lat="59.986530326826" lon="23.478992628781">
        <ele>39.4</ele>
        <time>2014-07-01T17:14:49Z</time>
      </trkpt>
      <trkpt lat="59.986439969944" lon="23.478896907483">
        <ele>39.4</ele>
        <time>2014-07-01T17:14:56Z</time>
      </trkpt>
      <trkpt lat="59.986357743505" lon="23.478838150364">
        <ele>39.4</ele>
        <time>2014-07-01T17:15:02Z</time>
      </trkpt>
      <trkpt lat="59.9862994893" lon="23.478806215325">
        <ele>39.4</ele>
        <time>2014-07-01T17:15:06Z</time>
      </trkpt>
      <trkpt lat="59.986196140473" lon="23.478718289194">
        <ele>39.4</ele>
        <time>2014-07-01T17:15:14Z</time>
      </trkpt>
      <trkpt lat="59.986135790793" lon="23.478670177088">
        <ele>39.4</ele>
        <time>2014-07-01T17:15:19Z</time>
      </trkpt>
      <trkpt lat="59.986062532987" lon="23.478581496586">
        <ele>39.4</ele>
        <time>2014-07-01T17:15:26Z</time>
      </trkpt>
      <trkpt lat="59.985997321805" lon="23.478544197131">
        <ele>39.4</ele>
        <time>2014-07-01T17:15:31Z</time>
      </trkpt>
      <trkpt lat="59.985984916593" lon="23.478531037548">
        <ele>39.4</ele>
        <time>2014-07-01T17:15:32Z</time>
      </trkpt>
      <trkpt lat="59.985896152272" lon="23.47843363987">
        <ele>39.4</ele>
        <time>2014-07-01T17:15:40Z</time>
      </trkpt>
      <trkpt lat="59.985838149524" lon="23.478401537193">
        <ele>39.4</ele>
        <time>2014-07-01T17:15:45Z</time>
      </trkpt>
      <trkpt lat="59.985796994395" lon="23.478361806987">
        <ele>39.4</ele>
        <time>2014-07-01T17:15:51Z</time>
      </trkpt>
      <trkpt lat="59.985779224767" lon="23.478313611062">
        <ele>39.4</ele>
        <time>2014-07-01T17:15:57Z</time>
      </trkpt>
      <trkpt lat="59.985774447084" lon="23.47832970431">
        <ele>39.4</ele>
        <time>2014-07-01T17:16:00Z</time>
      </trkpt>
      <trkpt lat="59.985744020787" lon="23.478282598032">
        <ele>39.4</ele>
        <time>2014-07-01T17:16:21Z</time>
      </trkpt>
      <trkpt lat="59.985708230074" lon="23.478219566144">
        <ele>39.4</ele>
        <time>2014-07-01T17:16:27Z</time>
      </trkpt>
      <trkpt lat="59.985635307544" lon="23.478030051385">
        <ele>39.4</ele>
        <time>2014-07-01T17:16:30Z</time>
      </trkpt>
      <trkpt lat="59.985508992311" lon="23.477691506444">
        <ele>40</ele>
        <time>2014-07-01T17:16:34Z</time>
      </trkpt>
      <trkpt lat="59.985392819177" lon="23.477326139423">
        <ele>40.4</ele>
        <time>2014-07-01T17:16:38Z</time>
      </trkpt>
      <trkpt lat="59.985336157533" lon="23.477134613008">
        <ele>40.6</ele>
        <time>2014-07-01T17:16:40Z</time>
      </trkpt>
      <trkpt lat="59.985226941376" lon="23.476654413957">
        <ele>40.8</ele>
        <time>2014-07-01T17:16:45Z</time>
      </trkpt>
      <trkpt lat="59.985119401599" lon="23.476278401923">
        <ele>41</ele>
        <time>2014-07-01T17:16:49Z</time>
      </trkpt>
      <trkpt lat="59.985068774923" lon="23.476114787235">
        <ele>41.2</ele>
        <time>2014-07-01T17:16:51Z</time>
      </trkpt>
      <trkpt lat="59.984993170185" lon="23.475843046037">
        <ele>41.2</ele>
        <time>2014-07-01T17:16:54Z</time>
      </trkpt>
      <trkpt lat="59.984883283476" lon="23.475441217751">
        <ele>41.2</ele>
        <time>2014-07-01T17:16:59Z</time>
      </trkpt>
      <trkpt lat="59.984809271299" lon="23.475190850398">
        <ele>41.4</ele>
        <time>2014-07-01T17:17:02Z</time>
      </trkpt>
      <trkpt lat="59.984700641875" lon="23.474843504462">
        <ele>41.4</ele>
        <time>2014-07-01T17:17:06Z</time>
      </trkpt>
      <trkpt lat="59.98458203799" lon="23.474512419412">
        <ele>41.4</ele>
        <time>2014-07-01T17:17:10Z</time>
      </trkpt>
      <trkpt lat="59.984431079971" lon="23.474105645805">
        <ele>41.2</ele>
        <time>2014-07-01T17:17:15Z</time>
      </trkpt>
      <trkpt lat="59.984399731665" lon="23.474030795438">
        <ele>41</ele>
        <time>2014-07-01T17:17:16Z</time>
      </trkpt>
      <trkpt lat="59.984370562653" lon="23.473967260636">
        <ele>40.8</ele>
        <time>2014-07-01T17:17:17Z</time>
      </trkpt>
      <trkpt lat="59.984313565733" lon="23.4738126984">
        <ele>40.6</ele>
        <time>2014-07-01T17:17:19Z</time>
      </trkpt>
      <trkpt lat="59.984190435622" lon="23.473537604442">
        <ele>39.8</ele>
        <time>2014-07-01T17:17:23Z</time>
      </trkpt>
      <trkpt lat="59.984163110628" lon="23.473465352464">
        <ele>39.6</ele>
        <time>2014-07-01T17:17:24Z</time>
      </trkpt>
      <trkpt lat="59.98404392001" lon="23.473155473621">
        <ele>38.8</ele>
        <time>2014-07-01T17:17:28Z</time>
      </trkpt>
      <trkpt lat="59.98401290698" lon="23.473085317118">
        <ele>38.6</ele>
        <time>2014-07-01T17:17:29Z</time>
      </trkpt>
      <trkpt lat="59.983958676087" lon="23.472949195062">
        <ele>38</ele>
        <time>2014-07-01T17:17:33Z</time>
      </trkpt>
      <trkpt lat="59.983952808757" lon="23.472941399895">
        <ele>37.8</ele>
        <time>2014-07-01T17:17:34Z</time>
      </trkpt>
      <trkpt lat="59.983939732993" lon="23.472893706884">
        <ele>36.6</ele>
        <time>2014-07-01T17:17:40Z</time>
      </trkpt>
      <trkpt lat="59.983904948108" lon="23.472758590656">
        <ele>35.8</ele>
        <time>2014-07-01T17:17:47Z</time>
      </trkpt>
      <trkpt lat="59.98387879658" lon="23.472641411694">
        <ele>35.4</ele>
        <time>2014-07-01T17:17:52Z</time>
      </trkpt>
      <trkpt lat="59.983847699731" lon="23.472480646852">
        <ele>35.2</ele>
        <time>2014-07-01T17:17:59Z</time>
      </trkpt>
      <trkpt lat="59.983829678646" lon="23.472333628326">
        <ele>35.2</ele>
        <time>2014-07-01T17:18:05Z</time>
      </trkpt>
      <trkpt lat="59.983814758864" lon="23.472194907881">
        <ele>35.2</ele>
        <time>2014-07-01T17:18:11Z</time>
      </trkpt>
      <trkpt lat="59.983808723896" lon="23.472068508829">
        <ele>35.2</ele>
        <time>2014-07-01T17:18:16Z</time>
      </trkpt>
      <trkpt lat="59.983788355879" lon="23.471923921054">
        <ele>35.2</ele>
        <time>2014-07-01T17:18:22Z</time>
      </trkpt>
      <trkpt lat="59.983794893761" lon="23.471833564172">
        <ele>35.2</ele>
        <time>2014-07-01T17:18:26Z</time>
      </trkpt>
      <trkpt lat="59.983785925128" lon="23.47167699028">
        <ele>35.2</ele>
        <time>2014-07-01T17:18:34Z</time>
      </trkpt>
      <trkpt lat="59.983785170757" lon="23.471662657231">
        <ele>35.2</ele>
        <time>2014-07-01T17:18:35Z</time>
      </trkpt>
      <trkpt lat="59.98383101975" lon="23.471494851593">
        <ele>36.4</ele>
        <time>2014-07-01T17:18:49Z</time>
      </trkpt>
      <trkpt lat="59.983849711387" lon="23.471475237947">
        <ele>36.6</ele>
        <time>2014-07-01T17:18:51Z</time>
      </trkpt>
      <trkpt lat="59.983911234533" lon="23.471392424775">
        <ele>36.8</ele>
        <time>2014-07-01T17:18:58Z</time>
      </trkpt>
      <trkpt lat="59.98391986789" lon="23.47138278559">
        <ele>36.8</ele>
        <time>2014-07-01T17:18:59Z</time>
      </trkpt>
      <trkpt lat="59.983992371325" lon="23.471327716507">
        <ele>37</ele>
        <time>2014-07-01T17:19:06Z</time>
      </trkpt>
      <trkpt lat="59.984050374073" lon="23.471269881397">
        <ele>37</ele>
        <time>2014-07-01T17:19:12Z</time>
      </trkpt>
      <trkpt lat="59.98409756417" lon="23.471230570286">
        <ele>37.2</ele>
        <time>2014-07-01T17:19:17Z</time>
      </trkpt>
      <trkpt lat="59.98410426969" lon="23.471235180331">
        <ele>37.2</ele>
        <time>2014-07-01T17:19:18Z</time>
      </trkpt>
      <trkpt lat="59.984123296603" lon="23.471207352423">
        <ele>37.2</ele>
        <time>2014-07-01T17:19:22Z</time>
      </trkpt>
      <trkpt lat="59.984113825056" lon="23.471217410703">
        <ele>37.8</ele>
        <time>2014-07-01T17:19:26Z</time>
      </trkpt>
      <trkpt lat="59.984096306885" lon="23.471226463155">
        <ele>38.6</ele>
        <time>2014-07-01T17:19:33Z</time>
      </trkpt>
      <trkpt lat="59.984103347681" lon="23.471275161994">
        <ele>39</ele>
        <time>2014-07-01T17:19:43Z</time>
      </trkpt>
      <trkpt lat="59.9840782858" lon="23.471290249414">
        <ele>39</ele>
        <time>2014-07-01T17:19:45Z</time>
      </trkpt>
      <trkpt lat="59.984117429273" lon="23.471235934702">
        <ele>39</ele>
        <time>2014-07-01T17:19:50Z</time>
      </trkpt>
      <trkpt lat="59.984133522521" lon="23.471212549201">
        <ele>39</ele>
        <time>2014-07-01T17:19:52Z</time>
      </trkpt>
      <trkpt lat="59.984130085942" lon="23.47120760388">
        <ele>39.2</ele>
        <time>2014-07-01T17:20:00Z</time>
      </trkpt>
      <trkpt lat="59.984115836712" lon="23.47121850035">
        <ele>39.2</ele>
        <time>2014-07-01T17:20:01Z</time>
      </trkpt>
      <trkpt lat="59.984108712097" lon="23.471211124278">
        <ele>39.2</ele>
        <time>2014-07-01T17:20:04Z</time>
      </trkpt>
      <trkpt lat="59.984138970756" lon="23.471174998289">
        <ele>39.2</ele>
        <time>2014-07-01T17:20:09Z</time>
      </trkpt>
      <trkpt lat="59.984181969903" lon="23.471133256427">
        <ele>39.2</ele>
        <time>2014-07-01T17:20:12Z</time>
      </trkpt>
      <trkpt lat="59.984155818375" lon="23.471172735176">
        <ele>39.2</ele>
        <time>2014-07-01T17:20:17Z</time>
      </trkpt>
      <trkpt lat="59.984067808425" lon="23.471303660454">
        <ele>39.2</ele>
        <time>2014-07-01T17:20:20Z</time>
      </trkpt>
      <trkpt lat="59.984059258887" lon="23.471302906083">
        <ele>39.2</ele>
        <time>2014-07-01T17:20:21Z</time>
      </trkpt>
      <trkpt lat="59.984082141474" lon="23.471280610229">
        <ele>39.2</ele>
        <time>2014-07-01T17:20:24Z</time>
      </trkpt>
      <trkpt lat="59.984098067084" lon="23.471258062918">
        <ele>39.2</ele>
        <time>2014-07-01T17:20:26Z</time>
      </trkpt>
      <trkpt lat="59.984154309633" lon="23.471178183411">
        <ele>39.2</ele>
        <time>2014-07-01T17:20:32Z</time>
      </trkpt>
      <trkpt lat="59.984167888311" lon="23.471162425439">
        <ele>39.2</ele>
        <time>2014-07-01T17:20:33Z</time>
      </trkpt>
      <trkpt lat="59.984221867747" lon="23.471058908974">
        <ele>39.2</ele>
        <time>2014-07-01T17:20:39Z</time>
      </trkpt>
      <trkpt lat="59.984203092291" lon="23.470865035627">
        <ele>39.2</ele>
        <time>2014-07-01T17:20:46Z</time>
      </trkpt>
      <trkpt lat="59.984197811694" lon="23.470838884099">
        <ele>39.2</ele>
        <time>2014-07-01T17:20:47Z</time>
      </trkpt>
      <trkpt lat="59.984189597432" lon="23.470788005966">
        <ele>39.2</ele>
        <time>2014-07-01T17:20:49Z</time>
      </trkpt>
      <trkpt lat="59.98419479421" lon="23.470663367113">
        <ele>39.2</ele>
        <time>2014-07-01T17:20:53Z</time>
      </trkpt>
      <trkpt lat="59.984194458934" lon="23.470627073486">
        <ele>39.2</ele>
        <time>2014-07-01T17:20:54Z</time>
      </trkpt>
      <trkpt lat="59.984173252727" lon="23.470439654202">
        <ele>39.2</ele>
        <time>2014-07-01T17:21:00Z</time>
      </trkpt>
      <trkpt lat="59.984117177816" lon="23.470223820277">
        <ele>39.2</ele>
        <time>2014-07-01T17:21:04Z</time>
      </trkpt>
      <trkpt lat="59.983990694945" lon="23.469989462353">
        <ele>39.2</ele>
        <time>2014-07-01T17:21:07Z</time>
      </trkpt>
      <trkpt lat="59.983927160143" lon="23.469894411607">
        <ele>39.2</ele>
        <time>2014-07-01T17:21:09Z</time>
      </trkpt>
      <trkpt lat="59.983846023351" lon="23.469798941766">
        <ele>39.2</ele>
        <time>2014-07-01T17:21:15Z</time>
      </trkpt>
      <trkpt lat="59.983821212927" lon="23.469800869603">
        <ele>39.2</ele>
        <time>2014-07-01T17:21:21Z</time>
      </trkpt>
      <trkpt lat="59.98383437251" lon="23.469820567068">
        <ele>39.2</ele>
        <time>2014-07-01T17:21:22Z</time>
      </trkpt>
      <trkpt lat="59.983863625341" lon="23.469847975881">
        <ele>39.2</ele>
        <time>2014-07-01T17:21:26Z</time>
      </trkpt>
      <trkpt lat="59.983873599802" lon="23.469846886234">
        <ele>39.2</ele>
        <time>2014-07-01T17:21:27Z</time>
      </trkpt>
      <trkpt lat="59.983956329155" lon="23.469931208148">
        <ele>39.2</ele>
        <time>2014-07-01T17:21:31Z</time>
      </trkpt>
      <trkpt lat="59.984067724606" lon="23.470164141149">
        <ele>39.2</ele>
        <time>2014-07-01T17:21:37Z</time>
      </trkpt>
      <trkpt lat="59.984143161706" lon="23.470427165171">
        <ele>39.2</ele>
        <time>2014-07-01T17:21:43Z</time>
      </trkpt>
      <trkpt lat="59.984256568813" lon="23.470567059082">
        <ele>39.2</ele>
        <time>2014-07-01T17:21:48Z</time>
      </trkpt>
      <trkpt lat="59.984429571229" lon="23.470679376542">
        <ele>39.2</ele>
        <time>2014-07-01T17:21:54Z</time>
      </trkpt>
      <trkpt lat="59.984571309158" lon="23.470774511107">
        <ele>39.6</ele>
        <time>2014-07-01T17:22:00Z</time>
      </trkpt>
      <trkpt lat="59.984720004064" lon="23.470842404497">
        <ele>40.4</ele>
        <time>2014-07-01T17:22:06Z</time>
      </trkpt>
      <trkpt lat="59.984792758956" lon="23.470914740294">
        <ele>40.6</ele>
        <time>2014-07-01T17:22:09Z</time>
      </trkpt>
      <trkpt lat="59.984801476132" lon="23.47094441222">
        <ele>40.6</ele>
        <time>2014-07-01T17:22:11Z</time>
      </trkpt>
      <trkpt lat="59.984761326831" lon="23.470891187155">
        <ele>40.8</ele>
        <time>2014-07-01T17:22:15Z</time>
      </trkpt>
      <trkpt lat="59.984674406528" lon="23.470840560479">
        <ele>41</ele>
        <time>2014-07-01T17:22:22Z</time>
      </trkpt>
      <trkpt lat="59.98459125808" lon="23.47080946363">
        <ele>41</ele>
        <time>2014-07-01T17:22:26Z</time>
      </trkpt>
      <trkpt lat="59.984519341378" lon="23.470793621839">
        <ele>41.2</ele>
        <time>2014-07-01T17:22:30Z</time>
      </trkpt>
      <trkpt lat="59.98443200198" lon="23.470733355978">
        <ele>41.2</ele>
        <time>2014-07-01T17:22:35Z</time>
      </trkpt>
      <trkpt lat="59.984321612357" lon="23.470645765123">
        <ele>41.2</ele>
        <time>2014-07-01T17:22:40Z</time>
      </trkpt>
      <trkpt lat="59.984222789756" lon="23.470538392984">
        <ele>41.2</ele>
        <time>2014-07-01T17:22:45Z</time>
      </trkpt>
      <trkpt lat="59.984149615769" lon="23.470281823025">
        <ele>41.2</ele>
        <time>2014-07-01T17:22:51Z</time>
      </trkpt>
      <trkpt lat="59.984061857276" lon="23.470077137027">
        <ele>41.2</ele>
        <time>2014-07-01T17:22:57Z</time>
      </trkpt>
      <trkpt lat="59.983941409373" lon="23.469914863443">
        <ele>41.2</ele>
        <time>2014-07-01T17:23:03Z</time>
      </trkpt>
      <trkpt lat="59.983924226478" lon="23.469887706087">
        <ele>41.2</ele>
        <time>2014-07-01T17:23:04Z</time>
      </trkpt>
      <trkpt lat="59.983842335315" lon="23.46979693011">
        <ele>41.2</ele>
        <time>2014-07-01T17:23:08Z</time>
      </trkpt>
      <trkpt lat="59.983822554031" lon="23.469772706419">
        <ele>41.2</ele>
        <time>2014-07-01T17:23:09Z</time>
      </trkpt>
      <trkpt lat="59.983722641783" lon="23.469719648992">
        <ele>41.2</ele>
        <time>2014-07-01T17:23:13Z</time>
      </trkpt>
      <trkpt lat="59.983667488881" lon="23.469698191328">
        <ele>41.2</ele>
        <time>2014-07-01T17:23:16Z</time>
      </trkpt>
    </trkseg>
  </trk>
</gpx>